Time;durP1;ratioP1;P1;durP2;ratioP2;P2;SDS_P1;SDS_P2;PMS_P1;PMS_P2;Temp;Humidity;BMP_temperature;BMP_pressure;BME280_temperature;BME280_humidity;BME280_pressure;Samples;Min_cycle;Max_cycle;Signal;HPM_P1;HPM_P2
2023/03/11 00:01:39;;;;;;;3.60;1.85;;;14.90;54.90;;;;;;3927728;30;20234;-68
2023/03/11 00:04:20;;;;;;;7.13;1.45;;;14.90;55.20;;;;;;3915234;30;20633;-68
2023/03/11 00:07:01;;;;;;;3.17;1.00;;;15.00;55.10;;;;;;3913674;30;20055;-68
2023/03/11 00:09:41;;;;;;;3.55;1.08;;;15.00;54.60;;;;;;3922213;30;20077;-68
2023/03/11 00:12:24;;;;;;;6.60;1.27;;;15.10;54.80;;;;;;3913294;30;20068;-68
2023/03/11 00:15:05;;;;;;;5.55;0.95;;;15.20;54.30;;;;;;3913493;30;20100;-68
2023/03/11 00:17:47;;;;;;;3.03;1.10;;;15.30;54.00;;;;;;3913097;30;20055;-69
2023/03/11 00:20:30;;;;;;;3.25;1.00;;;15.30;53.80;;;;;;3920500;30;20059;-68
2023/03/11 00:23:13;;;;;;;5.43;1.13;;;15.30;53.90;;;;;;3927904;30;20059;-67
2023/03/11 00:25:55;;;;;;;1.98;0.80;;;15.30;53.20;;;;;;3927219;30;20071;-68
2023/03/11 00:28:37;;;;;;;1.75;0.80;;;15.30;53.40;;;;;;3927775;30;20059;-67
2023/03/11 00:31:18;;;;;;;5.72;0.85;;;15.30;53.30;;;;;;3927802;30;20144;-68
2023/03/11 00:33:59;;;;;;;3.00;0.52;;;15.30;53.40;;;;;;3927597;30;20519;-68
2023/03/11 00:36:40;;;;;;;1.75;1.05;;;15.30;54.10;;;;;;3915582;30;20072;-68
2023/03/11 00:39:22;;;;;;;6.45;1.00;;;15.30;53.60;;;;;;3913485;30;20063;-68
2023/03/11 00:42:03;;;;;;;3.35;1.00;;;15.30;53.70;;;;;;3902473;30;20553;-67
2023/03/11 00:44:46;;;;;;;2.03;0.65;;;15.30;53.50;;;;;;3914195;30;20067;-67
2023/03/11 00:47:27;;;;;;;3.45;0.60;;;15.30;53.10;;;;;;3927320;30;20067;-68
2023/03/11 00:50:11;;;;;;;1.45;0.80;;;15.20;53.40;;;;;;3927695;30;20065;-68
2023/03/11 00:52:52;;;;;;;2.60;0.70;;;15.10;53.60;;;;;;3906317;30;20413;-68
2023/03/11 00:55:35;;;;;;;1.40;0.50;;;15.10;54.10;;;;;;3912749;30;20129;-68
2023/03/11 00:58:21;;;;;;;1.98;0.73;;;15.20;54.30;;;;;;3901774;30;20059;-68
2023/03/11 01:01:09;;;;;;;2.55;0.55;;;15.20;53.60;;;;;;3891826;30;20155;-68
2023/03/11 01:03:50;;;;;;;1.65;0.68;;;15.30;52.90;;;;;;3906643;30;20178;-68
2023/03/11 01:06:32;;;;;;;2.15;0.73;;;15.30;52.50;;;;;;3915775;30;20113;-68
2023/03/11 01:09:24;;;;;;;1.17;0.70;;;15.40;52.40;;;;;;3915946;30;20063;-68
2023/03/11 01:12:06;;;;;;;3.65;1.23;;;15.50;53.00;;;;;;3912541;30;20150;-68
2023/03/11 01:14:47;;;;;;;2.08;0.40;;;15.50;53.10;;;;;;3916090;30;20578;-68
2023/03/11 01:17:29;;;;;;;1.30;0.93;;;15.50;53.00;;;;;;3927446;30;20067;-68
2023/03/11 01:20:12;;;;;;;2.03;0.60;;;15.60;53.20;;;;;;3916075;30;20067;-68
2023/03/11 01:22:53;;;;;;;1.27;0.80;;;15.60;53.10;;;;;;3916015;30;20054;-68
2023/03/11 01:25:35;;;;;;;4.65;0.60;;;15.60;53.10;;;;;;3916128;30;20066;-68
2023/03/11 01:28:16;;;;;;;3.65;0.50;;;15.60;53.10;;;;;;3914100;30;20175;-68
2023/03/11 01:30:57;;;;;;;1.02;0.50;;;15.50;53.10;;;;;;3926961;30;20055;-69
2023/03/11 01:33:40;;;;;;;2.95;0.93;;;15.50;53.30;;;;;;3926412;30;20055;-68
2023/03/11 01:36:20;;;;;;;2.30;0.45;;;15.40;53.40;;;;;;3926541;30;20058;-68
2023/03/11 01:39:01;;;;;;;2.70;0.90;;;15.30;53.60;;;;;;3926990;30;20141;-68
2023/03/11 01:41:42;;;;;;;1.70;0.47;;;15.30;53.90;;;;;;3910320;30;20133;-68
2023/03/11 01:44:24;;;;;;;0.95;0.65;;;15.30;54.70;;;;;;3914010;30;20054;-67
2023/03/11 01:47:39;;;;;;;3.10;0.60;;;15.40;54.20;;;;;;3915928;30;20067;-67
2023/03/11 01:50:34;;;;;;;1.50;0.60;;;15.50;53.10;;;;;;3871784;30;20073;-67
2023/03/11 01:53:17;;;;;;;4.72;0.80;;;15.60;53.40;;;;;;3877273;30;20065;-68
2023/03/11 01:56:01;;;;;;;1.90;0.65;;;15.60;53.10;;;;;;3915687;30;20059;-68
2023/03/11 01:58:47;;;;;;;3.53;0.80;;;15.70;52.10;;;;;;3913737;30;20413;-68
2023/03/11 02:01:29;;;;;;;1.02;0.55;;;15.70;52.10;;;;;;3903459;30;20492;-68
2023/03/11 02:04:12;;;;;;;2.25;0.55;;;15.70;52.20;;;;;;3911962;30;20051;-68
2023/03/11 02:06:55;;;;;;;2.15;0.77;;;15.60;52.40;;;;;;3915721;30;20078;-68
2023/03/11 02:09:36;;;;;;;1.33;0.80;;;15.60;53.40;;;;;;3915581;30;20047;-68
2023/03/11 02:12:18;;;;;;;1.05;0.40;;;15.60;52.80;;;;;;3924134;30;20059;-68
2023/03/11 02:15:00;;;;;;;1.05;0.60;;;15.60;53.10;;;;;;3901489;30;20114;-68
2023/03/11 02:17:43;;;;;;;0.60;0.50;;;15.60;53.10;;;;;;3901087;30;20138;-68
2023/03/11 02:20:36;;;;;;;3.17;0.60;;;15.70;52.70;;;;;;3900997;30;20189;-69
2023/03/11 02:23:29;;;;;;;1.40;0.43;;;15.60;52.50;;;;;;3904996;30;20132;-67
2023/03/11 02:26:15;;;;;;;2.75;0.77;;;15.70;52.60;;;;;;3915421;30;20067;-68
2023/03/11 02:28:59;;;;;;;2.53;0.70;;;15.70;52.50;;;;;;3915200;30;20181;-68
2023/03/11 02:31:42;;;;;;;1.88;0.70;;;15.80;52.60;;;;;;3915124;30;20059;-68
2023/03/11 02:34:28;;;;;;;1.67;0.60;;;15.80;52.30;;;;;;3915592;30;20054;-69
2023/03/11 02:37:12;;;;;;;1.35;0.45;;;15.80;51.90;;;;;;3912390;30;20069;-68
2023/03/11 02:40:31;;;;;;;2.13;0.70;;;15.90;52.00;;;;;;3905858;30;20063;-68
2023/03/11 02:43:15;;;;;;;2.83;0.60;;;15.80;51.90;;;;;;3920180;30;20075;-68
2023/03/11 02:45:58;;;;;;;0.93;0.50;;;15.80;52.10;;;;;;3913133;30;20549;-68
2023/03/11 02:48:40;;;;;;;2.65;0.77;;;15.80;52.10;;;;;;3920361;30;20111;-69
2023/03/11 02:51:21;;;;;;;2.15;0.50;;;15.80;52.10;;;;;;3919588;30;20526;-69
2023/03/11 02:54:05;;;;;;;0.68;0.30;;;15.90;52.00;;;;;;3918798;30;20586;-68
2023/03/11 02:56:47;;;;;;;1.05;0.73;;;15.90;52.00;;;;;;3905243;30;20527;-69
2023/03/11 02:59:28;;;;;;;1.48;0.57;;;15.80;51.80;;;;;;3916082;30;20059;-68
2023/03/11 03:02:12;;;;;;;1.48;0.40;;;15.80;51.90;;;;;;3915489;30;20418;-68
2023/03/11 03:04:53;;;;;;;5.07;0.90;;;15.80;51.80;;;;;;3905761;30;20067;-68
2023/03/11 03:07:35;;;;;;;2.95;0.50;;;15.80;51.90;;;;;;3915724;30;20064;-68
2023/03/11 03:10:17;;;;;;;2.08;0.70;;;15.60;52.80;;;;;;3929259;30;20051;-68
2023/03/11 03:12:58;;;;;;;6.03;1.10;;;15.60;52.20;;;;;;3919604;30;20099;-68
2023/03/11 03:15:40;;;;;;;1.92;0.68;;;15.50;53.00;;;;;;3919771;30;20059;-69
2023/03/11 03:18:22;;;;;;;2.72;0.75;;;15.50;53.60;;;;;;3931015;30;20055;-69
2023/03/11 03:21:03;;;;;;;1.58;0.60;;;15.60;52.80;;;;;;3919597;30;20070;-69
2023/03/11 03:23:45;;;;;;;1.00;0.70;;;15.70;52.50;;;;;;3919863;30;20156;-69
2023/03/11 03:26:26;;;;;;;3.08;0.73;;;15.70;52.20;;;;;;3910555;30;20394;-69
2023/03/11 03:29:07;;;;;;;2.03;1.00;;;15.70;52.10;;;;;;3905151;30;20118;-69
2023/03/11 03:31:49;;;;;;;1.35;0.60;;;15.70;52.00;;;;;;3905433;30;20418;-69
2023/03/11 03:34:31;;;;;;;2.00;0.63;;;15.70;52.10;;;;;;3911555;30;20056;-70
2023/03/11 03:37:12;;;;;;;1.05;0.60;;;15.70;52.00;;;;;;3919681;30;20305;-68
2023/03/11 03:39:53;;;;;;;3.78;0.95;;;15.60;52.10;;;;;;3930660;30;20513;-68
2023/03/11 03:42:35;;;;;;;1.63;0.63;;;15.70;52.40;;;;;;3913332;30;20513;-68
2023/03/11 03:45:16;;;;;;;2.92;1.15;;;15.70;52.40;;;;;;3895206;30;20145;-70
2023/03/11 03:47:58;;;;;;;0.82;0.55;;;15.70;52.20;;;;;;3905590;30;20409;-68
2023/03/11 03:50:43;;;;;;;0.68;0.40;;;15.70;52.10;;;;;;3907332;30;20055;-68
2023/03/11 03:53:28;;;;;;;3.33;0.77;;;15.80;52.60;;;;;;3916719;30;20059;-69
2023/03/11 03:56:12;;;;;;;1.58;0.57;;;15.80;51.90;;;;;;3928703;30;20125;-68
2023/03/11 03:58:54;;;;;;;2.22;0.73;;;15.90;51.90;;;;;;3917194;30;20920;-68
2023/03/11 04:01:37;;;;;;;1.60;0.80;;;15.90;51.70;;;;;;3917052;30;20063;-68
2023/03/11 04:04:19;;;;;;;1.45;0.57;;;15.90;51.50;;;;;;3928266;30;20054;-68
2023/03/11 04:07:03;;;;;;;;;;;15.90;51.50;;;;;;3917787;30;20194;-68
2023/03/11 04:09:45;;;;;;;2.78;0.98;;;15.90;51.70;;;;;;3905823;30;19949;-68
2023/03/11 04:12:27;;;;;;;4.28;0.80;;;15.90;51.60;;;;;;3902932;30;20059;-68
2023/03/11 04:15:09;;;;;;;0.55;0.50;;;15.80;51.50;;;;;;3902953;30;20070;-68
2023/03/11 04:17:52;;;;;;;3.65;0.60;;;15.70;51.60;;;;;;3902497;30;20155;-69
2023/03/11 04:20:33;;;;;;;3.88;0.82;;;15.70;51.90;;;;;;3902752;30;20067;-69
2023/03/11 04:23:16;;;;;;;2.17;0.60;;;15.60;51.80;;;;;;3902580;30;20059;-69
2023/03/11 04:25:57;;;;;;;1.52;0.73;;;15.50;51.80;;;;;;3902329;30;20091;-69
2023/03/11 04:28:38;;;;;;;2.38;0.80;;;15.50;52.10;;;;;;3906831;30;20058;-69
2023/03/11 04:31:19;;;;;;;2.35;1.10;;;15.50;52.40;;;;;;3907141;30;20067;-69
2023/03/11 04:34:00;;;;;;;4.18;0.60;;;15.50;53.10;;;;;;3917032;30;20127;-69
2023/03/11 04:36:42;;;;;;;2.10;0.70;;;15.60;52.30;;;;;;3917029;30;20101;-69
2023/03/11 04:39:26;;;;;;;0.45;0.45;;;15.60;52.20;;;;;;3916219;30;20201;-69
2023/03/11 04:42:08;;;;;;;1.30;0.60;;;15.60;52.10;;;;;;3927763;30;20116;-69
2023/03/11 04:44:50;;;;;;;4.13;0.90;;;15.60;52.00;;;;;;3916400;30;20428;-64
2023/03/11 04:47:31;;;;;;;1.50;0.63;;;15.60;51.90;;;;;;3924889;30;20067;-65
2023/03/11 04:50:13;;;;;;;1.77;0.60;;;15.60;52.00;;;;;;3902421;30;20122;-64
2023/03/11 04:52:55;;;;;;;1.85;0.60;;;15.60;52.00;;;;;;3904408;30;20155;-64
2023/03/11 04:55:38;;;;;;;2.83;0.88;;;15.50;52.10;;;;;;3906377;30;20101;-64
2023/03/11 04:58:20;;;;;;;1.00;0.70;;;15.60;52.10;;;;;;3916498;30;20055;-65
2023/03/11 05:01:01;;;;;;;1.13;0.60;;;15.60;52.00;;;;;;3906511;30;20051;-65
2023/03/11 05:03:42;;;;;;;4.18;0.90;;;15.60;51.80;;;;;;3927535;30;20055;-65
2023/03/11 05:06:24;;;;;;;2.47;0.80;;;15.60;51.80;;;;;;3914319;30;20059;-65
2023/03/11 05:09:06;;;;;;;;;;;15.60;51.90;;;;;;3916966;30;20162;-65
2023/03/11 05:11:51;;;;;;;1.65;0.57;;;15.60;52.00;;;;;;3916452;30;19948;-65
2023/03/11 05:14:33;;;;;;;1.20;0.77;;;15.70;51.80;;;;;;3902011;30;20055;-65
2023/03/11 05:17:17;;;;;;;4.18;0.98;;;15.80;51.50;;;;;;3911975;30;20056;-64
2023/03/11 05:19:59;;;;;;;1.10;0.50;;;15.80;51.50;;;;;;3913741;30;20198;-64
2023/03/11 05:22:44;;;;;;;2.28;0.80;;;15.90;51.30;;;;;;3916181;30;20201;-64
2023/03/11 05:25:25;;;;;;;3.05;0.85;;;15.90;51.20;;;;;;3916015;30;20079;-65
2023/03/11 05:28:08;;;;;;;3.95;0.90;;;15.90;51.20;;;;;;3915957;30;20060;-64
2023/03/11 05:30:53;;;;;;;1.90;0.70;;;15.80;51.20;;;;;;3916048;30;20067;-65
2023/03/11 05:33:35;;;;;;;;;;;15.80;51.20;;;;;;3909393;30;20125;-65
2023/03/11 05:36:18;;;;;;;1.67;0.70;;;15.70;51.40;;;;;;3914179;30;20037;-64
2023/03/11 05:38:59;;;;;;;6.32;0.95;;;15.60;51.70;;;;;;3916192;30;20137;-65
2023/03/11 05:41:40;;;;;;;1.67;0.82;;;15.50;51.80;;;;;;3916068;30;20063;-68
2023/03/11 05:44:23;;;;;;;;;;;15.60;51.90;;;;;;3916073;30;20202;-68
2023/03/11 05:47:05;;;;;;;3.47;1.25;;;15.70;52.00;;;;;;3901486;30;19937;-68
2023/03/11 05:49:48;;;;;;;1.60;0.80;;;15.80;51.60;;;;;;3901067;30;20052;-69
2023/03/11 05:52:32;;;;;;;1.48;0.80;;;15.90;51.30;;;;;;3901354;30;20068;-68
2023/03/11 05:55:14;;;;;;;5.97;1.13;;;16.00;51.80;;;;;;3911924;30;20064;-68
2023/03/11 05:57:57;;;;;;;3.03;1.00;;;16.00;50.80;;;;;;3911470;30;20076;-70
2023/03/11 06:00:40;;;;;;;1.42;1.08;;;16.00;50.80;;;;;;3901113;30;20822;-68
2023/03/11 06:03:21;;;;;;;1.83;1.13;;;16.00;50.90;;;;;;3913466;30;20431;-68
2023/03/11 06:06:02;;;;;;;4.55;0.95;;;16.00;51.10;;;;;;3905733;30;20117;-68
2023/03/11 06:08:48;;;;;;;4.93;1.30;;;16.00;51.00;;;;;;3926881;30;20141;-68
2023/03/11 06:11:30;;;;;;;3.38;1.15;;;16.10;51.10;;;;;;3915650;30;20504;-68
2023/03/11 06:14:12;;;;;;;1.67;0.60;;;16.00;51.00;;;;;;3926193;30;20101;-68
2023/03/11 06:16:56;;;;;;;0.95;0.80;;;16.10;51.20;;;;;;3915755;30;20120;-68
2023/03/11 06:19:38;;;;;;;2.47;1.05;;;16.00;51.00;;;;;;3914496;30;20408;-68
2023/03/11 06:22:19;;;;;;;;;;;16.00;51.10;;;;;;3926663;30;20063;-68
2023/03/11 06:25:00;;;;;;;2.80;1.13;;;16.00;51.30;;;;;;3926511;30;20686;-68
2023/03/11 06:27:49;;;;;;;2.47;0.65;;;15.90;51.40;;;;;;3915934;30;20055;-59
2023/03/11 06:30:30;;;;;;;4.32;1.13;;;15.90;51.40;;;;;;3915816;30;20063;-67
2023/03/11 06:33:22;;;;;;;3.05;0.70;;;15.80;53.40;;;;;;3901478;30;20058;-68
2023/03/11 06:36:04;;;;;;;1.63;1.00;;;15.80;54.00;;;;;;3901065;30;20055;-67
2023/03/11 06:38:45;;;;;;;3.28;1.15;;;15.90;54.40;;;;;;3912116;30;20059;-67
2023/03/11 06:41:28;;;;;;;2.28;1.40;;;15.90;54.60;;;;;;3905678;30;20156;-66
2023/03/11 06:44:09;;;;;;;;;;;15.90;54.50;;;;;;3915802;30;20063;-66
2023/03/11 06:46:51;;;;;;;5.07;1.75;;;16.00;55.30;;;;;;3915559;30;19933;-67
2023/03/11 06:49:35;;;;;;;2.10;1.75;;;16.00;56.00;;;;;;3915198;30;20090;-67
2023/03/11 06:52:16;;;;;;;3.55;2.10;;;16.10;56.10;;;;;;3921271;30;20056;-67
2023/03/11 06:54:57;;;;;;;4.63;2.05;;;16.10;55.90;;;;;;3899220;30;20064;-67
2023/03/11 06:57:40;;;;;;;4.68;2.33;;;16.20;56.10;;;;;;3900983;30;20055;-67
2023/03/11 07:00:23;;;;;;;7.32;2.13;;;16.20;56.10;;;;;;3899029;30;20063;-67
2023/03/11 07:03:09;;;;;;;8.68;2.03;;;16.20;55.90;;;;;;3915144;30;20063;-67
2023/03/11 07:05:52;;;;;;;4.22;1.80;;;16.20;55.90;;;;;;3915421;30;20524;-67
2023/03/11 07:08:33;;;;;;;2.60;1.33;;;16.20;55.80;;;;;;3911967;30;20063;-68
2023/03/11 07:11:16;;;;;;;4.15;1.63;;;16.10;55.90;;;;;;3914592;30;20373;-68
2023/03/11 07:13:58;;;;;;;2.97;0.85;;;16.00;56.20;;;;;;3925694;30;20137;-68
2023/03/11 07:16:42;;;;;;;3.45;1.15;;;16.00;56.60;;;;;;3915466;30;20050;-68
2023/03/11 07:19:30;;;;;;;4.35;1.02;;;16.10;56.50;;;;;;3915239;30;20055;-69
2023/03/11 07:22:13;;;;;;;3.70;0.90;;;16.10;56.70;;;;;;3926216;30;20066;-68
2023/03/11 07:24:54;;;;;;;10.32;1.15;;;16.10;56.80;;;;;;3909854;30;20085;-67
2023/03/11 07:27:34;;;;;;;1.75;0.88;;;16.10;57.80;;;;;;3928902;30;20145;-67
2023/03/11 07:30:15;;;;;;;2.83;0.80;;;16.20;57.60;;;;;;3928442;30;20063;-68
2023/03/11 07:32:57;;;;;;;4.43;1.05;;;16.20;57.30;;;;;;3928403;30;20549;-68
2023/03/11 07:35:38;;;;;;;3.63;1.00;;;16.20;58.20;;;;;;3928545;30;20059;-68
2023/03/11 07:38:20;;;;;;;1.35;0.80;;;16.20;57.30;;;;;;3928407;30;20411;-67
2023/03/11 07:41:01;;;;;;;4.10;1.20;;;16.10;57.40;;;;;;3928019;30;20176;-68
2023/03/11 07:43:42;;;;;;;1.55;0.68;;;16.00;57.60;;;;;;3915390;30;20623;-68
2023/03/11 07:46:25;;;;;;;4.30;0.98;;;16.00;57.80;;;;;;3902777;30;20413;-69
2023/03/11 07:49:06;;;;;;;3.72;1.35;;;16.00;58.20;;;;;;3915180;30;20099;-68
2023/03/11 07:51:47;;;;;;;2.35;1.08;;;15.90;58.60;;;;;;3920738;30;20121;-69
2023/03/11 07:54:29;;;;;;;4.72;0.90;;;15.90;59.20;;;;;;3925694;30;20059;-69
2023/03/11 07:57:15;;;;;;;2.55;0.90;;;15.90;59.30;;;;;;3927974;30;20566;-69
2023/03/11 07:59:56;;;;;;;3.15;1.30;;;15.80;59.60;;;;;;3922721;30;20417;-68
2023/03/11 08:02:37;;;;;;;5.32;0.90;;;15.70;59.90;;;;;;3912758;30;20561;-69
2023/03/11 08:05:19;;;;;;;2.15;1.00;;;15.70;60.90;;;;;;3923564;30;20063;-68
2023/03/11 08:08:00;;;;;;;5.55;1.80;;;15.70;61.10;;;;;;3926497;30;20413;-68
2023/03/11 08:10:42;;;;;;;4.93;0.85;;;15.80;61.00;;;;;;3915351;30;21437;-68
2023/03/11 08:13:23;;;;;;;3.55;1.08;;;15.80;61.00;;;;;;3928321;30;20054;-68
2023/03/11 08:16:05;;;;;;;3.10;0.90;;;15.80;61.00;;;;;;3928305;30;20055;-68
2023/03/11 08:18:47;;;;;;;6.90;1.10;;;15.80;61.30;;;;;;3927651;30;20063;-68
2023/03/11 08:21:30;;;;;;;3.63;0.98;;;15.90;61.50;;;;;;3925750;30;20058;-68
2023/03/11 08:24:13;;;;;;;3.58;1.40;;;16.00;62.10;;;;;;3928663;30;20496;-68
2023/03/11 08:26:56;;;;;;;5.93;1.42;;;16.10;60.70;;;;;;3904688;30;20417;-68
2023/03/11 08:29:36;;;;;;;3.65;1.20;;;16.30;60.30;;;;;;3927333;30;20058;-68
2023/03/11 08:32:17;;;;;;;3.67;1.10;;;16.40;59.80;;;;;;3923852;30;20075;-68
2023/03/11 08:34:59;;;;;;;2.90;1.08;;;16.50;59.40;;;;;;3909007;30;20331;-66
2023/03/11 08:37:40;;;;;;;3.45;1.25;;;16.60;59.30;;;;;;3915299;30;20048;-65
2023/03/11 08:40:21;;;;;;;2.83;1.40;;;16.60;58.90;;;;;;3915676;30;20051;-64
2023/03/11 08:43:03;;;;;;;4.22;1.40;;;16.70;59.10;;;;;;3905995;30;20099;-65
2023/03/11 08:45:44;;;;;;;3.53;1.10;;;16.60;59.20;;;;;;3926981;30;20055;-65
2023/03/11 08:48:25;;;;;;;3.22;1.05;;;16.50;59.30;;;;;;3915630;30;20063;-65
2023/03/11 08:51:10;;;;;;;2.28;1.00;;;16.50;59.50;;;;;;3883515;30;20570;-64
2023/03/11 08:53:53;;;;;;;2.17;1.10;;;16.50;59.40;;;;;;3911005;30;20072;-64
2023/03/11 08:56:34;;;;;;;1.90;1.00;;;16.50;59.30;;;;;;3909944;30;20425;-64
2023/03/11 08:59:17;;;;;;;4.25;1.35;;;16.50;59.50;;;;;;3902820;30;20069;-64
2023/03/11 09:01:58;;;;;;;1.95;1.00;;;16.50;59.50;;;;;;3905814;30;20067;-64
2023/03/11 09:04:40;;;;;;;2.67;1.20;;;16.60;59.30;;;;;;3925803;30;20559;-64
2023/03/11 09:07:21;;;;;;;3.65;1.17;;;16.60;59.00;;;;;;3904798;30;20523;-64
2023/03/11 09:10:02;;;;;;;;;;;16.60;58.90;;;;;;3925793;30;20197;-64
2023/03/11 09:12:44;;;;;;;5.10;1.58;;;16.60;59.20;;;;;;3914653;30;19982;-64
2023/03/11 09:15:27;;;;;;;4.05;1.35;;;16.50;59.30;;;;;;3925680;30;20106;-64
2023/03/11 09:18:12;;;;;;;3.85;1.20;;;16.40;59.50;;;;;;3907756;30;20106;-64
2023/03/11 09:20:57;;;;;;;2.70;1.17;;;16.40;59.40;;;;;;3900574;30;20048;-64
2023/03/11 09:23:38;;;;;;;3.55;1.13;;;16.50;59.50;;;;;;3910624;30;20472;-65
2023/03/11 09:26:22;;;;;;;6.07;1.10;;;16.40;59.40;;;;;;3912648;30;20198;-65
2023/03/11 09:29:03;;;;;;;3.65;1.25;;;16.40;59.60;;;;;;3903645;30;20420;-65
2023/03/11 09:31:45;;;;;;;2.55;1.25;;;16.30;59.60;;;;;;3890094;30;20067;-65
2023/03/11 09:34:27;;;;;;;7.63;1.80;;;16.30;59.90;;;;;;3900133;30;20051;-65
2023/03/11 09:37:08;;;;;;;2.05;1.10;;;16.30;60.10;;;;;;3900652;30;20056;-65
2023/03/11 09:39:52;;;;;;;3.50;0.95;;;16.30;59.90;;;;;;3903186;30;20133;-72
2023/03/11 09:42:40;;;;;;;4.50;1.30;;;16.30;59.90;;;;;;3920303;30;20645;-64
2023/03/11 09:45:25;;;;;;;4.85;1.13;;;16.20;59.80;;;;;;3901112;30;20137;-64
2023/03/11 09:48:18;;;;;;;3.58;1.50;;;16.20;60.00;;;;;;3899922;30;21038;-63
2023/03/11 09:51:09;;;;;;;1.55;1.00;;;16.10;60.10;;;;;;3902400;30;20060;-64
2023/03/11 09:53:56;;;;;;;1.20;0.80;;;16.00;60.50;;;;;;3908669;30;20060;-62
2023/03/11 09:56:38;;;;;;;5.28;1.08;;;16.00;60.70;;;;;;3888751;30;20071;-63
2023/03/11 09:59:30;;;;;;;2.63;0.90;;;16.00;60.70;;;;;;3905964;30;20123;-64
2023/03/11 10:02:15;;;;;;;3.03;1.15;;;16.00;60.50;;;;;;3909194;30;20234;-64
2023/03/11 10:05:04;;;;;;;3.72;1.08;;;16.00;60.60;;;;;;3899350;30;20059;-68
2023/03/11 10:07:51;;;;;;;2.55;0.93;;;16.00;60.50;;;;;;3901641;30;20067;-64
2023/03/11 10:10:41;;;;;;;2.45;1.38;;;16.00;60.30;;;;;;3903642;30;20078;-67
2023/03/11 10:13:30;;;;;;;2.47;1.02;;;16.10;61.30;;;;;;3917129;30;20136;-64
2023/03/11 10:16:20;;;;;;;3.47;1.00;;;16.10;60.40;;;;;;3905639;30;20071;-64
2023/03/11 10:19:11;;;;;;;7.90;1.23;;;16.10;61.00;;;;;;3921608;30;20059;-63
2023/03/11 10:22:03;;;;;;;3.33;1.00;;;16.10;60.10;;;;;;3909553;30;20060;-64
2023/03/11 10:25:11;;;;;;;2.15;1.00;;;16.20;60.20;;;;;;3911087;30;20190;-64
2023/03/11 10:27:57;;;;;;;3.97;1.13;;;16.40;59.80;;;;;;3904840;30;20628;-64
2023/03/11 10:30:43;;;;;;;6.63;1.10;;;16.50;59.40;;;;;;3921664;30;20152;-67
2023/03/11 10:33:30;;;;;;;3.70;1.30;;;16.70;58.90;;;;;;3920262;30;20530;-67
2023/03/11 10:36:16;;;;;;;1.73;0.93;;;16.80;58.40;;;;;;3932300;30;20125;-67
2023/03/11 10:38:58;;;;;;;4.25;1.10;;;17.00;58.00;;;;;;3920479;30;20515;-67
2023/03/11 10:41:44;;;;;;;2.38;1.10;;;17.10;57.60;;;;;;3931404;30;20070;-67
2023/03/11 10:44:29;;;;;;;3.05;1.00;;;17.20;57.00;;;;;;3931694;30;20096;-68
2023/03/11 10:47:16;;;;;;;2.22;0.93;;;17.40;56.80;;;;;;3921975;30;20070;-67
2023/03/11 10:49:57;;;;;;;2.70;1.00;;;17.40;56.50;;;;;;3929701;30;20062;-67
2023/03/11 10:52:45;;;;;;;3.80;1.30;;;17.40;56.30;;;;;;3929867;30;20206;-67
2023/03/11 10:55:31;;;;;;;2.95;1.02;;;17.40;56.30;;;;;;3922969;30;20067;-65
2023/03/11 10:58:14;;;;;;;4.20;1.10;;;17.40;56.50;;;;;;3923536;30;20055;-64
2023/03/11 11:01:05;;;;;;;1.95;1.10;;;17.30;56.90;;;;;;3920746;30;20158;-64
2023/03/11 11:03:49;;;;;;;1.50;0.82;;;17.20;57.10;;;;;;3926518;30;20141;-64
2023/03/11 11:06:32;;;;;;;2.65;1.33;;;17.20;57.60;;;;;;3926957;30;20202;-64
2023/03/11 11:09:18;;;;;;;4.15;1.40;;;17.20;57.60;;;;;;3932537;30;20092;-64
2023/03/11 11:12:06;;;;;;;11.27;1.77;;;17.20;57.70;;;;;;3929881;30;20067;-64
2023/03/11 11:14:49;;;;;;;4.03;1.30;;;17.20;57.70;;;;;;3926915;30;20121;-64
2023/03/11 11:17:32;;;;;;;7.28;1.40;;;17.20;57.50;;;;;;3929207;30;20140;-64
2023/03/11 11:20:18;;;;;;;3.53;1.00;;;17.10;57.80;;;;;;3927782;30;20519;-68
2023/03/11 11:23:01;;;;;;;5.38;1.30;;;17.10;57.80;;;;;;3934696;30;20059;-63
2023/03/11 11:25:47;;;;;;;3.60;1.10;;;17.00;58.00;;;;;;3926984;30;20062;-65
2023/03/11 11:28:29;;;;;;;4.25;1.02;;;17.00;58.10;;;;;;3937279;30;20059;-64
2023/03/11 11:31:22;;;;;;;2.03;1.20;;;17.10;58.10;;;;;;3925005;30;20090;-64
2023/03/11 11:34:05;;;;;;;5.65;1.38;;;17.10;57.90;;;;;;3929143;30;20533;-68
2023/03/11 11:36:46;;;;;;;5.63;1.33;;;17.20;57.90;;;;;;3929593;30;20054;-67
2023/03/11 11:39:30;;;;;;;3.23;1.10;;;17.20;58.00;;;;;;3934278;30;20154;-67
2023/03/11 11:42:14;;;;;;;2.80;1.40;;;17.20;58.00;;;;;;3940664;30;20397;-68
2023/03/11 11:45:02;;;;;;;2.58;1.25;;;17.20;57.70;;;;;;3936507;30;20193;-69
2023/03/11 11:47:48;;;;;;;4.45;1.10;;;17.30;57.60;;;;;;3927877;30;20108;-68
2023/03/11 11:50:34;;;;;;;4.50;1.17;;;17.30;57.50;;;;;;3936890;30;20059;-68
2023/03/11 11:53:27;;;;;;;4.78;1.25;;;17.20;57.40;;;;;;3931776;30;20121;-68
2023/03/11 11:56:08;;;;;;;3.28;1.13;;;17.10;57.60;;;;;;3924172;30;20063;-68
2023/03/11 11:58:48;;;;;;;6.18;1.05;;;17.10;58.00;;;;;;3931257;30;20416;-68
2023/03/11 12:01:39;;;;;;;5.55;1.83;;;17.10;58.30;;;;;;3930606;30;20519;-68
2023/03/11 12:04:35;;;;;;;5.43;1.47;;;17.10;58.20;;;;;;3922812;30;20067;-67
2023/03/11 12:07:29;;;;;;;6.32;1.17;;;17.00;58.50;;;;;;3932234;30;20292;-68
2023/03/11 12:10:21;;;;;;;4.93;0.93;;;16.90;58.60;;;;;;3925115;30;20204;-68
2023/03/11 12:13:36;;;;;;;1.40;1.00;;;16.90;58.80;;;;;;3923828;30;20417;-64
2023/03/11 12:16:28;;;;;;;3.45;0.60;;;16.70;58.70;;;;;;3927103;30;20652;-64
2023/03/11 12:19:19;;;;;;;4.15;1.13;;;16.70;59.20;;;;;;3917520;30;20058;-64
2023/03/11 12:22:28;;;;;;;2.22;1.30;;;16.60;59.50;;;;;;3916231;30;20063;-68
2023/03/11 12:25:28;;;;;;;1.85;1.27;;;16.60;59.60;;;;;;3917958;30;20054;-68
2023/03/11 12:28:18;;;;;;;2.25;1.35;;;16.60;59.50;;;;;;3932557;30;20084;-68
2023/03/11 12:31:03;;;;;;;2.38;0.73;;;16.60;59.40;;;;;;3921681;30;20058;-64
2023/03/11 12:33:47;;;;;;;1.75;1.48;;;16.60;59.30;;;;;;3919800;30;20201;-65
2023/03/11 12:36:32;;;;;;;4.57;0.93;;;16.60;59.60;;;;;;3923787;30;20553;-65
2023/03/11 12:39:23;;;;;;;4.38;1.40;;;16.50;59.40;;;;;;3928964;30;20071;-68
2023/03/11 12:42:20;;;;;;;5.57;1.20;;;16.50;59.50;;;;;;3932622;30;20206;-68
2023/03/11 12:45:42;;;;;;;2.45;0.90;;;16.40;59.50;;;;;;3919627;30;20055;-68
2023/03/11 12:48:35;;;;;;;1.40;0.93;;;16.30;59.60;;;;;;3919557;30;20063;-68
2023/03/11 12:51:40;;;;;;;1.27;0.80;;;16.20;60.30;;;;;;3928553;30;20063;-68
2023/03/11 12:54:29;;;;;;;1.95;0.73;;;16.20;60.20;;;;;;3910562;30;20059;-68
2023/03/11 12:57:31;;;;;;;2.95;0.82;;;16.20;60.60;;;;;;3920548;30;20074;-68
2023/03/11 13:00:33;;;;;;;3.33;0.80;;;16.20;60.40;;;;;;3927353;30;20132;-68
2023/03/11 13:03:34;;;;;;;4.97;1.05;;;16.20;60.30;;;;;;3933653;30;20520;-68
2023/03/11 13:06:39;;;;;;;5.13;1.52;;;16.20;60.10;;;;;;3916169;30;20201;-68
2023/03/11 13:09:20;;;;;;;1.58;0.80;;;16.20;60.30;;;;;;3932010;30;20089;-65
2023/03/11 13:12:01;;;;;;;4.40;0.85;;;16.20;60.40;;;;;;3926732;30;20075;-65
2023/03/11 13:14:42;;;;;;;1.27;0.80;;;16.30;60.30;;;;;;3933148;30;20066;-65
2023/03/11 13:17:25;;;;;;;5.75;1.23;;;16.30;60.10;;;;;;3924712;30;20548;-65
2023/03/11 13:20:44;;;;;;;2.03;0.82;;;16.30;59.80;;;;;;3924934;30;20058;-65
2023/03/11 13:23:32;;;;;;;1.70;0.70;;;16.30;59.30;;;;;;3934560;30;20062;-65
2023/03/11 13:26:38;;;;;;;4.97;0.90;;;16.30;59.60;;;;;;3932087;30;20922;-65
2023/03/11 13:29:46;;;;;;;3.05;0.70;;;16.20;59.40;;;;;;3916370;30;20484;-65
2023/03/11 13:32:51;;;;;;;2.63;1.10;;;16.20;60.10;;;;;;3913201;30;20067;-65
2023/03/11 13:35:46;;;;;;;3.40;0.82;;;16.10;60.00;;;;;;3927491;30;20566;-68
2023/03/11 13:38:52;;;;;;;2.35;0.60;;;16.10;60.00;;;;;;3931614;30;20063;-64
2023/03/11 13:41:35;;;;;;;1.42;0.77;;;16.10;60.10;;;;;;3924136;30;20071;-64
2023/03/11 13:44:29;;;;;;;1.50;0.73;;;16.10;60.60;;;;;;3929397;30;20401;-69
2023/03/11 13:47:15;;;;;;;2.15;0.95;;;16.10;60.30;;;;;;3918457;30;20160;-67
2023/03/11 13:50:02;;;;;;;3.25;1.30;;;16.10;60.20;;;;;;3930827;30;20062;-68
2023/03/11 13:52:48;;;;;;;3.88;1.00;;;16.10;60.10;;;;;;3908841;30;20063;-68
2023/03/11 13:55:34;;;;;;;2.08;0.77;;;16.10;60.10;;;;;;3932888;30;20412;-68
2023/03/11 13:58:16;;;;;;;2.55;0.60;;;16.10;60.20;;;;;;3927939;30;20063;-64
2023/03/11 14:00:59;;;;;;;4.25;0.90;;;16.10;60.50;;;;;;3925304;30;20062;-65
2023/03/11 14:03:42;;;;;;;1.40;0.88;;;16.10;60.40;;;;;;3929559;30;20063;-65
2023/03/11 14:06:24;;;;;;;5.20;1.08;;;16.10;60.30;;;;;;3931102;30;20204;-64
2023/03/11 14:09:06;;;;;;;;;;;16.10;60.20;;;;;;3932527;30;20478;-65
2023/03/11 14:11:47;;;;;;;;;;;16.10;60.40;;;;;;3929791;30;19936;-65
2023/03/11 14:14:54;;;;;;;4.57;0.70;;;16.00;61.70;;;;;;3929380;30;19995;-64
2023/03/11 14:17:35;;;;;;;3.45;0.95;;;16.00;60.50;;;;;;3932388;30;20178;-64
2023/03/11 14:20:21;;;;;;;2.72;0.90;;;16.00;60.80;;;;;;3927210;30;20412;-64